Ely, NV (89315)

6:36 AM PDT on September 20, 2017 (GMT -0700)
MNSWM | | Change Station
Active Advisory: Winter Weather Advisory

Elev 6448 ft 39.20 °N, 114.81 °W | Updated 136 days ago

Clear
Clear
66.0 °F
Feels Like 66.0 °F
N
12.0
Wind Variable Wind from SSE
Gusts 20.0 mph

Today
High -- | Low -- °F
--% Chance of Precip.
Yesterday
High -- | Low -- °F
Precip. -- in
Pressure 29.84 in
Visibility 10.0 miles
Clouds Clear
Dew Point 26 °F
Humidity 22%
Rainfall 0.00 in
Snow Depth Not available.
6:25 AM 6:39 PM
New Moon, 0% visible
METAR KELY 201253Z AUTO 17009KT 10SM CLR 00/M05 A2999 RMK AO2 SLP105 T00001050
Pressure 29.84 in
Visibility 10.0 miles
Clouds Clear
Dew Point 26 °F
Humidity 22%
Rainfall 0.00 in
Snow Depth Not available.
6:25 AM 6:39 PM
New Moon, 0% visible
METAR KELY 201253Z AUTO 17009KT 10SM CLR 00/M05 A2999 RMK AO2 SLP105 T00001050

Get Your Daily Forecast Email!

Thanks for signing up!

Be on the lookout for a verification email in your inbox.

You'll start receiving severe weather alerts in your inbox..

×

10-Day Weather Forecast

Almanac

Astronomy

Sep. 20, 2017 Rise Set
Actual Time
Civil Twilight
Nautical Twilight
Astronomical Twilight
Moon
Length of Visible Light
Length of Day
Tomorrow will be .
, % of the Moon is Illuminated

Today's Extremes

State Highs State Lows

Community

WunderPhotos

Category 6

Welcome to Category 6. This is the collective home for Weather Underground's featured writeups by Dr. Jeff Masters (right), Bob Henson (left), Chris Burt, and other regular contributors.

Nearby

Air Quality

  Air Quality AQ Index Pollutant
Not available.

Snow Depth

Station Depth Elevation

Earthquake Activity

City Distance Mag. Time & Date
Minimum magnitude displayed is 2.5.

Coastal Water Temperatures

Place Temperature

Stations

Nearby Weather Stations

Station Location Temp. Windchill Dew Point Humidity Wind Precip. Elev Updated Type
                   

Watches & Warnings

Winter Weather Advisory
Issued: 3:46 AM PDT Sep. 20, 2017 – National Weather Service

... Winter Weather Advisory remains in effect from 11 PM this
evening to 11 PM PDT Thursday...

* snow accumulations... 6 to 10 inches at elevations above 7000
feet.

* Snow accumulations... up to 3 inches between 6000 and 7000 feet.

* Timing... snow levels will be lowering late Wednesday night
through Thursday evening.

* Impacts... roads, bridges, and overpasses in the advisory area
may become slick and hazardous. Accumulation of ice on
roadways, bridges and overpasses may make travel hazardous.

* For a detailed view of the hazard area, visit
http://www.Wrh.NOAA.Gov/map.

Precautionary/preparedness actions...

A Winter Weather Advisory means that travel difficulties are
expected due to wintry conditions. Be prepared for slippery roads
and limited visibilities, and use caution while driving. For the
latest Road conditions call 511 or visit http://www.Nvroads.Com.